createdAt,value
2018-09-20T00:00:43.474Z,13.80
2018-09-20T00:03:12.642Z,13.80
2018-09-20T00:05:40.818Z,13.70
2018-09-20T00:08:09.037Z,13.70
2018-09-20T00:10:37.218Z,13.60
2018-09-20T00:13:05.410Z,13.60
2018-09-20T00:15:33.598Z,13.60
2018-09-20T00:18:01.807Z,13.50
2018-09-20T00:20:30.030Z,13.50
2018-09-20T00:22:58.247Z,13.50
2018-09-20T00:25:26.475Z,13.50
2018-09-20T00:27:54.658Z,13.40
2018-09-20T00:30:22.869Z,13.40
2018-09-20T00:32:51.047Z,13.40
2018-09-20T00:35:19.242Z,13.30
2018-09-20T00:37:48.058Z,13.30
2018-09-20T00:40:16.466Z,13.30
2018-09-20T00:42:44.671Z,13.20
2018-09-20T00:45:12.895Z,13.20
2018-09-20T00:47:41.646Z,13.10
2018-09-20T00:50:09.855Z,13.10
2018-09-20T00:52:39.078Z,13.10
2018-09-20T00:55:07.298Z,13.00
2018-09-20T00:57:35.554Z,13.00
2018-09-20T01:00:03.786Z,13.00
2018-09-20T01:02:31.966Z,13.00
2018-09-20T01:05:00.158Z,12.90
2018-09-20T01:07:28.386Z,12.90
2018-09-20T01:09:56.583Z,12.80
2018-09-20T01:12:24.776Z,12.80
2018-09-20T01:14:52.970Z,12.70
2018-09-20T01:17:21.190Z,12.70
2018-09-20T01:19:49.406Z,12.60
2018-09-20T01:22:17.606Z,12.60
2018-09-20T01:24:45.835Z,12.50
2018-09-20T01:27:14.011Z,12.50
2018-09-20T01:29:42.295Z,12.40
2018-09-20T01:32:10.486Z,12.40
2018-09-20T01:34:38.686Z,12.40
2018-09-20T01:37:06.973Z,12.30
2018-09-20T01:39:35.158Z,12.30
2018-09-20T01:42:03.371Z,12.20
2018-09-20T01:44:31.566Z,12.20
2018-09-20T01:46:59.821Z,12.10
2018-09-20T01:49:29.825Z,12.10
2018-09-20T01:51:58.011Z,12.10
2018-09-20T01:54:26.251Z,12.00
2018-09-20T01:56:54.447Z,12.00
2018-09-20T01:59:22.642Z,11.90
2018-09-20T02:01:50.820Z,11.90
2018-09-20T02:04:19.016Z,11.90
2018-09-20T02:06:47.207Z,11.90
2018-09-20T02:09:15.422Z,11.80
2018-09-20T02:11:43.613Z,11.80
2018-09-20T02:14:11.810Z,11.80
2018-09-20T02:16:40.010Z,11.70
2018-09-20T02:19:08.222Z,11.70
2018-09-20T02:21:36.454Z,11.70
2018-09-20T02:24:04.650Z,11.70
2018-09-20T02:26:32.870Z,11.60
2018-09-20T02:29:01.055Z,11.60
2018-09-20T02:31:30.126Z,11.60
2018-09-20T02:33:58.317Z,11.50
2018-09-20T02:36:26.553Z,11.50
2018-09-20T02:38:54.736Z,11.50
2018-09-20T02:41:22.918Z,11.40
2018-09-20T02:43:51.114Z,11.40
2018-09-20T02:46:19.318Z,11.40
2018-09-20T02:48:47.526Z,11.40
2018-09-20T02:51:15.746Z,11.30
2018-09-20T02:53:43.950Z,11.30
2018-09-20T02:56:12.158Z,11.30
2018-09-20T02:58:41.153Z,11.20
2018-09-20T03:01:09.415Z,11.20
2018-09-20T03:03:37.606Z,11.20
2018-09-20T03:06:06.830Z,11.20
2018-09-20T03:08:35.056Z,11.10
2018-09-20T03:11:03.331Z,11.10
2018-09-20T03:13:31.566Z,11.10
2018-09-20T03:15:59.780Z,11.10
2018-09-20T03:18:27.979Z,11.10
2018-09-20T03:20:56.215Z,11.00
2018-09-20T03:23:24.423Z,11.00
2018-09-20T03:25:52.631Z,11.00
2018-09-20T03:28:20.938Z,10.90
2018-09-20T03:30:49.324Z,10.90
2018-09-20T03:33:17.445Z,10.90
2018-09-20T03:35:45.711Z,10.90
2018-09-20T03:38:13.934Z,10.80
2018-09-20T03:40:42.127Z,10.80
2018-09-20T03:43:10.328Z,10.80
2018-09-20T03:45:38.530Z,10.80
2018-09-20T03:48:06.766Z,10.80
2018-09-20T03:50:34.980Z,10.70
2018-09-20T03:53:03.202Z,10.70
2018-09-20T03:55:31.423Z,10.70
2018-09-20T03:57:59.702Z,10.60
2018-09-20T04:00:27.912Z,10.60
2018-09-20T04:02:56.178Z,10.60
2018-09-20T04:05:24.411Z,10.60
2018-09-20T04:07:52.833Z,10.60
2018-09-20T04:10:21.044Z,10.60
2018-09-20T04:12:49.238Z,10.50
2018-09-20T04:15:17.442Z,10.50
2018-09-20T04:17:45.698Z,10.50
2018-09-20T04:20:13.930Z,10.50
2018-09-20T04:22:42.142Z,10.40
2018-09-20T04:25:10.379Z,10.40
2018-09-20T04:27:39.288Z,10.40
2018-09-20T04:30:07.534Z,10.40
2018-09-20T04:32:35.819Z,10.30
2018-09-20T04:35:04.051Z,10.30
2018-09-20T04:37:32.266Z,10.30
2018-09-20T04:40:00.509Z,10.30
2018-09-20T04:42:28.697Z,10.30
2018-09-20T04:44:56.888Z,10.20
2018-09-20T04:47:25.121Z,10.20
2018-09-20T04:49:53.336Z,10.20
2018-09-20T04:52:21.550Z,10.20
2018-09-20T04:54:49.791Z,10.20
2018-09-20T04:57:19.563Z,10.20
2018-09-20T04:59:47.834Z,10.20
2018-09-20T05:02:16.034Z,10.10
2018-09-20T05:04:44.251Z,10.10
2018-09-20T05:07:12.483Z,10.10
2018-09-20T05:09:40.771Z,10.10
2018-09-20T05:12:09.267Z,10.10
2018-09-20T05:14:37.478Z,10.10
2018-09-20T05:17:05.867Z,10.10
2018-09-20T05:19:34.067Z,10.10
2018-09-20T05:22:02.423Z,10.10
2018-09-20T05:24:30.618Z,10.10
2018-09-20T05:26:58.846Z,10.00
2018-09-20T05:29:27.048Z,10.00
2018-09-20T05:31:55.256Z,10.00
2018-09-20T05:34:23.470Z,10.10
2018-09-20T05:36:52.715Z,10.00
2018-09-20T05:39:20.926Z,10.10
2018-09-20T05:41:49.136Z,10.10
2018-09-20T05:44:17.357Z,10.10
2018-09-20T05:46:45.627Z,10.10
2018-09-20T05:49:13.843Z,10.10
2018-09-20T05:51:42.071Z,10.20
2018-09-20T05:54:10.274Z,10.20
2018-09-20T05:56:38.486Z,10.20
2018-09-20T05:59:06.729Z,10.30
2018-09-20T06:01:34.971Z,10.40
2018-09-20T06:04:03.179Z,10.50
2018-09-20T06:06:31.399Z,10.60
2018-09-20T06:08:59.605Z,10.60
2018-09-20T06:11:27.835Z,10.70
2018-09-20T06:13:56.110Z,10.80
2018-09-20T06:16:24.339Z,10.90
2018-09-20T06:18:52.538Z,11.00
2018-09-20T06:21:20.891Z,11.00
2018-09-20T06:23:49.102Z,11.10
2018-09-20T06:26:17.314Z,11.30
2018-09-20T06:28:45.618Z,12.50
2018-09-20T06:31:13.826Z,14.00
2018-09-20T06:33:42.074Z,14.70
2018-09-20T06:36:10.278Z,15.10
2018-09-20T06:38:38.491Z,15.10
2018-09-20T06:41:06.766Z,14.70
2018-09-20T06:43:34.894Z,14.40
2018-09-20T06:46:03.110Z,14.20
2018-09-20T06:48:31.623Z,14.00
2018-09-20T06:50:59.834Z,13.80
2018-09-20T06:53:28.091Z,13.70
2018-09-20T06:55:56.303Z,13.60
2018-09-20T06:58:24.523Z,13.50
2018-09-20T07:00:52.743Z,13.50
2018-09-20T07:03:20.975Z,13.60
2018-09-20T07:05:49.150Z,13.70
2018-09-20T07:08:17.374Z,14.00
2018-09-20T07:10:45.578Z,14.30
2018-09-20T07:13:13.809Z,14.70
2018-09-20T07:15:42.015Z,15.10
2018-09-20T07:18:10.219Z,15.40
2018-09-20T07:20:38.435Z,15.70
2018-09-20T07:23:06.918Z,16.00
2018-09-20T07:25:35.164Z,16.20
2018-09-20T07:28:03.366Z,16.40
2018-09-20T07:30:31.571Z,16.70
2018-09-20T07:32:59.788Z,16.90
2018-09-20T07:35:28.030Z,17.10
2018-09-20T07:37:56.265Z,17.40
2018-09-20T07:40:24.471Z,17.70
2018-09-20T07:42:52.874Z,18.00
2018-09-20T07:45:21.090Z,18.40
2018-09-20T07:47:49.572Z,18.70
2018-09-20T07:50:17.779Z,19.00
2018-09-20T07:52:46.009Z,19.20
2018-09-20T07:55:14.208Z,19.60
2018-09-20T07:57:42.534Z,20.00
2018-09-20T08:00:10.763Z,20.50
2018-09-20T08:02:38.975Z,20.90
2018-09-20T08:05:07.191Z,21.30
2018-09-20T08:07:35.427Z,21.60
2018-09-20T08:10:03.750Z,22.00
2018-09-20T08:12:31.959Z,22.30
2018-09-20T08:15:00.152Z,22.60
2018-09-20T08:17:28.371Z,22.90
2018-09-20T08:19:56.570Z,23.20
2018-09-20T08:22:24.790Z,23.50
2018-09-20T08:24:52.990Z,23.80
2018-09-20T08:27:21.203Z,24.10
2018-09-20T08:29:49.950Z,24.30
2018-09-20T08:32:18.155Z,24.30
2018-09-20T08:34:46.388Z,24.50
2018-09-20T08:37:14.634Z,24.70
2018-09-20T08:39:42.815Z,24.90
2018-09-20T08:42:11.200Z,25.00
2018-09-20T08:44:39.560Z,25.20
2018-09-20T08:47:07.758Z,25.30
2018-09-20T08:49:36.054Z,25.50
2018-09-20T08:52:04.318Z,25.80
2018-09-20T08:54:32.542Z,26.10
2018-09-20T08:57:00.764Z,26.40
2018-09-20T08:59:29.000Z,26.80
2018-09-20T09:01:57.176Z,26.90
2018-09-20T09:04:25.554Z,27.10
2018-09-20T09:06:53.774Z,27.20
2018-09-20T09:09:21.980Z,27.30
2018-09-20T09:11:50.715Z,27.40
2018-09-20T09:14:18.912Z,27.50
2018-09-20T09:16:47.122Z,27.50
2018-09-20T09:19:15.385Z,27.60
2018-09-20T09:21:43.628Z,27.80
2018-09-20T09:24:11.876Z,28.10
2018-09-20T09:26:40.280Z,28.30
2018-09-20T09:29:09.269Z,28.50
2018-09-20T09:31:37.500Z,28.80
2018-09-20T09:34:05.754Z,28.70
2018-09-20T09:36:33.969Z,29.00
2018-09-20T09:39:02.207Z,29.00
2018-09-20T09:41:30.456Z,29.10
2018-09-20T09:43:58.671Z,29.20
2018-09-20T09:46:26.921Z,29.50
2018-09-20T09:48:55.143Z,29.60
2018-09-20T09:51:23.379Z,29.70
2018-09-20T09:53:51.703Z,29.60
2018-09-20T09:56:19.944Z,29.60
2018-09-20T09:58:48.191Z,29.80
2018-09-20T10:01:16.396Z,29.60
2018-09-20T10:03:44.611Z,29.50
2018-09-20T10:06:12.859Z,29.20
2018-09-20T10:08:41.106Z,29.30
2018-09-20T10:11:09.335Z,29.20
2018-09-20T10:13:37.576Z,29.30
2018-09-20T10:16:05.783Z,29.10
2018-09-20T10:18:34.013Z,29.20
2018-09-20T10:21:02.231Z,29.40
2018-09-20T10:23:30.463Z,29.40
2018-09-20T10:25:58.667Z,29.30
2018-09-20T10:28:26.867Z,29.50
2018-09-20T10:30:55.079Z,29.80
2018-09-20T10:33:23.312Z,30.00
2018-09-20T10:35:51.523Z,29.90
2018-09-20T10:38:19.731Z,30.00
2018-09-20T10:40:47.942Z,30.20
2018-09-20T10:43:16.259Z,30.50
2018-09-20T10:45:44.458Z,30.80
2018-09-20T10:48:12.646Z,30.90
2018-09-20T10:50:40.871Z,30.80
2018-09-20T10:53:09.650Z,30.80
2018-09-20T10:55:38.439Z,30.90
2018-09-20T10:58:06.635Z,31.20
2018-09-20T11:00:34.859Z,31.30
2018-09-20T11:03:03.119Z,31.70
2018-09-20T11:05:31.290Z,32.00
2018-09-20T11:07:59.498Z,32.10
2018-09-20T11:10:29.057Z,31.80
2018-09-20T11:12:57.255Z,31.70
2018-09-20T11:15:25.561Z,31.40
2018-09-20T11:17:53.745Z,31.60
2018-09-20T11:20:21.964Z,31.80
2018-09-20T11:22:50.167Z,32.10
2018-09-20T11:25:18.367Z,32.20
2018-09-20T11:27:46.568Z,32.30
2018-09-20T11:30:14.769Z,32.20
2018-09-20T11:32:42.963Z,32.20
2018-09-20T11:35:11.188Z,32.20
2018-09-20T11:37:39.379Z,31.70
2018-09-20T11:40:07.574Z,31.60
2018-09-20T11:42:35.779Z,31.50
2018-09-20T11:45:04.019Z,31.70
2018-09-20T11:47:32.227Z,31.80
2018-09-20T11:50:00.453Z,31.90
2018-09-20T11:52:28.642Z,31.90
2018-09-20T11:54:56.843Z,32.20
2018-09-20T11:57:25.671Z,32.20
2018-09-20T11:59:53.870Z,32.30
2018-09-20T12:02:22.074Z,32.40
2018-09-20T12:04:50.297Z,32.60
2018-09-20T12:07:18.507Z,32.80
2018-09-20T12:09:46.706Z,32.90
2018-09-20T12:12:14.919Z,33.00
2018-09-20T12:14:43.130Z,33.00
2018-09-20T12:17:11.338Z,33.00
2018-09-20T12:19:39.558Z,33.10
2018-09-20T12:22:07.843Z,33.10
2018-09-20T12:24:36.058Z,33.10
2018-09-20T12:27:04.371Z,33.00
2018-09-20T12:29:32.602Z,32.80
2018-09-20T12:32:00.908Z,32.60
2018-09-20T12:34:29.022Z,32.60
2018-09-20T12:36:57.247Z,32.40
2018-09-20T12:39:25.459Z,32.50
2018-09-20T12:41:53.674Z,32.70
2018-09-20T12:44:21.871Z,32.80
2018-09-20T12:46:50.091Z,32.80
2018-09-20T12:49:18.290Z,32.70
2018-09-20T12:54:21.051Z,32.50
2018-09-20T12:56:49.270Z,32.30
2018-09-20T12:59:17.486Z,32.30
2018-09-20T13:01:45.708Z,32.10
2018-09-20T13:04:13.922Z,32.00
2018-09-20T13:06:42.172Z,32.00
2018-09-20T13:09:10.968Z,32.30
2018-09-20T13:11:39.198Z,32.40
2018-09-20T13:14:07.451Z,32.50
2018-09-20T13:16:35.675Z,32.60
2018-09-20T13:19:04.311Z,32.90
2018-09-20T13:21:32.539Z,33.00
2018-09-20T13:24:00.738Z,33.00
2018-09-20T13:26:29.550Z,33.10
2018-09-20T13:29:31.206Z,33.20
2018-09-20T13:31:59.421Z,33.30
2018-09-20T13:34:27.654Z,33.40
2018-09-20T13:36:55.868Z,33.30
2018-09-20T13:39:24.115Z,33.30
2018-09-20T13:41:52.584Z,33.40
2018-09-20T13:44:20.782Z,33.30
2018-09-20T13:46:49.006Z,33.20
2018-09-20T13:49:17.208Z,33.20
2018-09-20T13:51:45.435Z,33.20
2018-09-20T13:54:19.942Z,33.30
2018-09-20T13:56:48.155Z,33.00
2018-09-20T13:59:16.367Z,33.00
2018-09-20T14:01:44.566Z,33.00
2018-09-20T14:04:12.761Z,33.00
2018-09-20T14:06:40.996Z,33.00
2018-09-20T14:09:10.346Z,33.00
2018-09-20T14:11:38.755Z,33.00
2018-09-20T14:14:06.970Z,32.90
2018-09-20T14:16:35.183Z,32.70
2018-09-20T14:19:03.430Z,32.60
2018-09-20T14:21:31.666Z,32.50
2018-09-20T14:23:59.877Z,32.30
2018-09-20T14:26:28.162Z,32.30
2018-09-20T14:28:56.381Z,32.20
2018-09-20T14:31:24.675Z,32.20
2018-09-20T14:33:52.890Z,32.10
2018-09-20T14:36:21.143Z,32.00
2018-09-20T14:38:49.359Z,31.90
2018-09-20T14:41:17.600Z,31.80
2018-09-20T14:43:45.790Z,31.60
2018-09-20T14:46:13.986Z,31.40
2018-09-20T14:48:42.201Z,31.10
2018-09-20T14:51:10.407Z,31.00
2018-09-20T14:53:38.643Z,30.90
2018-09-20T14:56:06.934Z,30.80
2018-09-20T14:58:36.306Z,30.70
2018-09-20T15:01:06.090Z,30.60
2018-09-20T15:03:34.402Z,30.50
2018-09-20T15:06:02.682Z,30.40
2018-09-20T15:08:30.923Z,30.40
2018-09-20T15:10:59.503Z,30.30
2018-09-20T15:13:27.830Z,30.20
2018-09-20T15:15:56.052Z,30.20
2018-09-20T15:18:24.283Z,30.10
2018-09-20T15:20:52.479Z,29.90
2018-09-20T15:23:20.796Z,29.80
2018-09-20T15:25:49.019Z,29.70
2018-09-20T15:28:17.258Z,29.60
2018-09-20T15:30:45.507Z,29.30
2018-09-20T15:33:13.722Z,29.20
2018-09-20T15:35:41.935Z,29.10
2018-09-20T15:38:10.147Z,29.10
2018-09-20T15:40:38.367Z,29.00
2018-09-20T15:43:06.512Z,29.00
2018-09-20T15:45:34.663Z,28.90
2018-09-20T15:48:02.817Z,28.80
2018-09-20T15:50:30.962Z,28.70
2018-09-20T15:52:59.116Z,28.50
2018-09-20T15:55:27.284Z,28.40
2018-09-20T15:57:55.497Z,28.10
2018-09-20T16:00:23.563Z,28.00
2018-09-20T16:02:51.711Z,27.90
2018-09-20T16:05:19.864Z,27.70
2018-09-20T16:07:48.127Z,27.50
2018-09-20T16:10:16.350Z,27.50
2018-09-20T16:12:44.587Z,27.30
2018-09-20T16:15:12.815Z,27.10
2018-09-20T16:17:41.026Z,27.00
2018-09-20T16:20:09.235Z,26.90
2018-09-20T16:22:37.596Z,26.70
2018-09-20T16:25:06.230Z,26.60
2018-09-20T16:27:34.486Z,26.40
2018-09-20T16:30:22.064Z,26.40
2018-09-20T16:33:15.650Z,26.20
2018-09-20T16:36:01.958Z,26.10
2018-09-20T16:38:42.300Z,25.90
2018-09-20T16:41:13.583Z,25.70
2018-09-20T16:43:41.812Z,25.50
2018-09-20T16:46:10.023Z,25.30
2018-09-20T16:48:38.274Z,25.20
2018-09-20T16:51:06.468Z,25.00
2018-09-20T16:53:34.671Z,24.80
2018-09-20T16:56:02.882Z,24.70
2018-09-20T16:58:31.099Z,24.50
2018-09-20T17:00:59.308Z,24.40
2018-09-20T17:03:27.567Z,24.30
2018-09-20T17:05:55.770Z,24.00
2018-09-20T17:08:24.031Z,23.90
2018-09-20T17:10:52.230Z,23.70
2018-09-20T17:13:20.504Z,23.50
2018-09-20T17:15:48.648Z,23.30
2018-09-20T17:18:16.864Z,23.10
2018-09-20T17:20:45.232Z,23.00
2018-09-20T17:23:13.467Z,22.80
2018-09-20T17:25:41.671Z,22.60
2018-09-20T17:28:09.899Z,22.40
2018-09-20T17:30:38.108Z,22.20
2018-09-20T17:33:06.455Z,22.00
2018-09-20T17:35:34.970Z,21.90
2018-09-20T17:38:03.926Z,21.70
2018-09-20T17:40:32.907Z,21.60
2018-09-20T17:43:03.658Z,21.40
2018-09-20T17:45:31.907Z,21.30
2018-09-20T17:48:00.127Z,21.10
2018-09-20T17:50:28.361Z,21.00
2018-09-20T17:52:57.413Z,20.80
2018-09-20T17:55:25.992Z,20.70
2018-09-20T17:57:54.575Z,20.50
2018-09-20T18:00:23.895Z,20.40
2018-09-20T18:02:52.819Z,20.20
2018-09-20T18:05:21.684Z,20.10
2018-09-20T18:07:49.894Z,20.00
2018-09-20T18:10:18.328Z,19.90
2018-09-20T18:12:46.547Z,19.80
2018-09-20T18:15:14.994Z,19.60
2018-09-20T18:17:43.216Z,19.50
2018-09-20T18:20:11.399Z,19.40
2018-09-20T18:22:39.732Z,19.30
2018-09-20T18:25:07.942Z,19.20
2018-09-20T18:27:36.199Z,19.10
2018-09-20T18:30:04.592Z,19.00
2018-09-20T18:32:32.803Z,18.90
2018-09-20T18:35:01.105Z,18.80
2018-09-20T18:37:31.402Z,18.80
2018-09-20T18:39:59.631Z,18.70
2018-09-20T18:42:27.876Z,18.60
2018-09-20T18:44:56.132Z,18.50
2018-09-20T18:47:24.348Z,18.40
2018-09-20T18:49:52.573Z,18.30
2018-09-20T18:52:20.837Z,18.20
2018-09-20T18:54:49.080Z,18.10
2018-09-20T18:57:17.330Z,18.10
2018-09-20T18:59:45.614Z,18.00
2018-09-20T19:02:13.807Z,17.90
2018-09-20T19:04:42.014Z,17.80
2018-09-20T19:07:10.235Z,17.70
2018-09-20T19:09:38.467Z,17.70
2018-09-20T19:12:06.698Z,17.60
2018-09-20T19:14:34.939Z,17.50
2018-09-20T19:17:03.258Z,17.40
2018-09-20T19:19:31.614Z,17.40
2018-09-20T19:21:59.851Z,17.20
2018-09-20T19:24:28.099Z,17.20
2018-09-20T19:26:56.294Z,17.10
2018-09-20T19:29:25.046Z,17.00
2018-09-20T19:31:53.329Z,16.90
2018-09-20T19:34:21.532Z,16.90
2018-09-20T19:36:49.763Z,16.80
2018-09-20T19:39:17.982Z,16.80
2018-09-20T19:41:46.191Z,16.70
2018-09-20T19:44:14.482Z,16.60
2018-09-20T19:46:42.646Z,16.50
2018-09-20T19:49:10.881Z,16.40
2018-09-20T19:51:39.155Z,16.40
2018-09-20T19:54:07.335Z,16.30
2018-09-20T19:56:35.571Z,16.20
2018-09-20T19:59:05.122Z,16.20
2018-09-20T20:01:33.367Z,16.10
2018-09-20T20:04:01.576Z,16.00
2018-09-20T20:06:29.802Z,15.90
2018-09-20T20:08:58.005Z,15.80
2018-09-20T20:11:26.226Z,15.80
2018-09-20T20:13:54.982Z,15.70
2018-09-20T20:16:23.474Z,15.60
2018-09-20T20:18:52.062Z,15.50
2018-09-20T20:21:20.277Z,15.50
2018-09-20T20:23:48.474Z,15.40
2018-09-20T20:26:16.699Z,15.30
2018-09-20T20:28:44.931Z,15.20
2018-09-20T20:31:13.126Z,15.20
2018-09-20T20:33:41.322Z,15.10
2018-09-20T20:36:09.538Z,15.00
2018-09-20T20:38:37.772Z,15.00
2018-09-20T20:41:06.058Z,14.90
2018-09-20T20:43:34.246Z,14.80
2018-09-20T20:46:02.465Z,14.80
2018-09-20T20:48:30.671Z,14.70
2018-09-20T20:50:58.897Z,14.70
2018-09-20T20:53:27.099Z,14.70
2018-09-20T20:55:55.309Z,14.60
2018-09-20T20:58:23.615Z,14.60
2018-09-20T21:00:51.770Z,14.50
2018-09-20T21:03:19.967Z,14.50
2018-09-20T21:05:48.162Z,14.50
2018-09-20T21:08:16.434Z,14.50
2018-09-20T21:10:44.683Z,14.40
2018-09-20T21:13:12.917Z,14.40
2018-09-20T21:15:41.138Z,14.40
2018-09-20T21:18:09.355Z,14.30
2018-09-20T21:20:37.559Z,14.30
2018-09-20T21:23:05.802Z,14.30
2018-09-20T21:25:34.006Z,14.30
2018-09-20T21:28:02.238Z,14.20
2018-09-20T21:30:30.494Z,14.20
2018-09-20T21:32:58.720Z,14.20
2018-09-20T21:35:26.919Z,14.20
2018-09-20T21:37:55.106Z,14.10
2018-09-20T21:40:23.316Z,14.10
2018-09-20T21:42:51.526Z,14.10
2018-09-20T21:45:19.726Z,14.10
2018-09-20T21:47:47.938Z,14.10
2018-09-20T21:50:16.150Z,14.00
2018-09-20T21:52:44.375Z,14.00
2018-09-20T21:55:12.610Z,14.00
2018-09-20T21:57:40.818Z,13.90
2018-09-20T22:00:09.068Z,13.90
2018-09-20T22:02:42.619Z,13.90
2018-09-20T22:05:10.817Z,13.80
2018-09-20T22:07:39.047Z,13.80
2018-09-20T22:10:07.266Z,13.70
2018-09-20T22:12:35.470Z,13.70
2018-09-20T22:15:03.700Z,13.60
2018-09-20T22:17:31.931Z,13.60
2018-09-20T22:20:00.127Z,13.60
2018-09-20T22:22:28.334Z,13.50
2018-09-20T22:24:56.530Z,13.50
2018-09-20T22:27:24.782Z,13.40
2018-09-20T22:29:52.941Z,13.40
2018-09-20T22:32:21.151Z,13.40
2018-09-20T22:34:49.347Z,13.40
2018-09-20T22:37:17.621Z,13.30
2018-09-20T22:39:45.844Z,13.30
2018-09-20T22:42:14.071Z,13.30
2018-09-20T22:44:42.309Z,13.30
2018-09-20T22:47:11.734Z,13.30
2018-09-20T22:49:39.941Z,13.30
2018-09-20T22:52:08.132Z,13.30
2018-09-20T22:54:36.330Z,13.30
2018-09-20T22:57:04.542Z,13.30
2018-09-20T22:59:32.786Z,13.40
2018-09-20T23:02:01.011Z,13.40
2018-09-20T23:04:29.214Z,13.40
2018-09-20T23:06:57.447Z,13.50
2018-09-20T23:09:25.674Z,13.50
2018-09-20T23:11:53.895Z,13.60
2018-09-20T23:14:22.098Z,13.60
2018-09-20T23:16:50.327Z,13.70
2018-09-20T23:19:18.548Z,13.70
2018-09-20T23:21:46.779Z,13.80
2018-09-20T23:24:15.207Z,13.80
2018-09-20T23:26:43.458Z,13.80
2018-09-20T23:29:11.681Z,13.90
2018-09-20T23:31:39.882Z,13.90
2018-09-20T23:34:08.098Z,13.90
2018-09-20T23:36:36.339Z,14.00
2018-09-20T23:39:07.347Z,14.00
2018-09-20T23:41:35.623Z,14.00
2018-09-20T23:44:03.856Z,14.00
2018-09-20T23:46:32.087Z,14.00
2018-09-20T23:49:00.348Z,14.00
2018-09-20T23:51:28.832Z,14.00
2018-09-20T23:53:57.030Z,14.10
2018-09-20T23:56:25.239Z,14.10
2018-09-20T23:58:53.510Z,14.10
